createdAt,value
2018-12-19T00:00:42.893Z,18.27
2018-12-19T00:03:14.407Z,17.87
2018-12-19T00:05:42.913Z,18.90
2018-12-19T00:08:11.704Z,18.90
2018-12-19T00:10:44.901Z,17.20
2018-12-19T00:13:22.583Z,16.93
2018-12-19T00:15:58.045Z,19.60
2018-12-19T00:18:27.613Z,19.13
2018-12-19T00:21:02.464Z,18.73
2018-12-19T00:23:31.043Z,18.90
2018-12-19T00:25:59.546Z,16.37
2018-12-19T00:28:28.054Z,17.13
2018-12-19T00:30:56.927Z,17.17
2018-12-19T00:39:29.654Z,17.57
2018-12-19T00:41:58.595Z,17.00
2018-12-19T00:44:43.519Z,17.60
2018-12-19T00:47:13.193Z,18.23
2018-12-19T00:49:46.154Z,19.33
2018-12-19T00:52:25.252Z,19.80
2018-12-19T00:54:58.050Z,20.10
2018-12-19T00:57:27.160Z,18.70
2018-12-19T00:59:59.175Z,17.90
2018-12-19T01:02:31.910Z,17.87
2018-12-19T01:05:05.246Z,18.30
2018-12-19T01:07:33.840Z,18.45
2018-12-19T01:10:02.259Z,17.50
2018-12-19T01:12:30.661Z,18.80
2018-12-19T01:14:59.005Z,18.80
2018-12-19T01:17:27.429Z,18.43
2018-12-19T01:19:55.840Z,18.33
2018-12-19T01:22:24.193Z,18.48
2018-12-19T01:24:52.599Z,17.77
2018-12-19T01:27:22.076Z,18.02
2018-12-19T01:29:50.486Z,18.75
2018-12-19T01:32:18.932Z,19.30
2018-12-19T01:34:47.318Z,19.47
2018-12-19T01:37:16.760Z,17.07
2018-12-19T01:39:45.886Z,17.42
2018-12-19T01:42:15.787Z,19.25
2018-12-19T01:44:45.206Z,19.90
2018-12-19T01:47:14.549Z,19.80
2018-12-19T01:49:44.091Z,17.87
2018-12-19T01:52:13.672Z,19.32
2018-12-19T01:54:42.751Z,18.50
2018-12-19T01:57:12.260Z,17.20
2018-12-19T01:59:40.768Z,18.17
2018-12-19T02:02:09.213Z,19.10
2018-12-19T02:04:37.766Z,18.65
2018-12-19T02:07:06.188Z,19.20
2018-12-19T02:09:34.578Z,19.62
2018-12-19T02:12:03.136Z,18.93
2018-12-19T02:14:31.489Z,17.98
2018-12-19T02:16:59.953Z,19.32
2018-12-19T02:19:28.638Z,18.70
2018-12-19T02:21:57.035Z,19.60
2018-12-19T02:24:25.452Z,18.42
2018-12-19T02:26:53.813Z,18.53
2018-12-19T02:29:22.162Z,20.07
2018-12-19T02:31:50.555Z,19.15
2018-12-19T02:34:19.133Z,21.15
2018-12-19T02:36:47.612Z,19.87
2018-12-19T02:39:16.022Z,19.50
2018-12-19T02:41:44.416Z,17.80
2018-12-19T02:44:12.925Z,19.17
2018-12-19T02:46:41.402Z,18.77
2018-12-19T02:49:09.846Z,19.10
2018-12-19T02:51:38.246Z,20.72
2018-12-19T02:54:06.782Z,19.83
2018-12-19T02:56:35.171Z,19.37
2018-12-19T02:59:03.590Z,19.20
2018-12-19T03:01:31.995Z,20.40
2018-12-19T03:04:00.407Z,19.30
2018-12-19T03:06:28.811Z,18.50
2018-12-19T03:08:57.199Z,19.07
2018-12-19T03:11:25.671Z,19.23
2018-12-19T03:13:56.130Z,18.50
2018-12-19T03:16:24.494Z,19.97
2018-12-19T03:18:52.919Z,18.13
2018-12-19T03:21:21.329Z,19.70
2018-12-19T03:23:49.702Z,20.17
2018-12-19T03:26:18.127Z,20.07
2018-12-19T03:28:46.614Z,18.27
2018-12-19T03:31:15.190Z,20.50
2018-12-19T03:33:43.733Z,17.65
2018-12-19T03:36:12.078Z,19.03
2018-12-19T03:38:40.471Z,22.02
2018-12-19T03:41:08.841Z,20.17
2018-12-19T03:43:37.248Z,19.70
2018-12-19T03:46:05.687Z,18.47
2018-12-19T03:48:39.480Z,19.27
2018-12-19T03:51:07.844Z,19.43
2018-12-19T03:53:36.223Z,21.60
2018-12-19T03:56:04.694Z,20.90
2018-12-19T03:58:33.047Z,21.30
2018-12-19T04:01:01.393Z,21.00
2018-12-19T04:03:29.886Z,20.53
2018-12-19T04:05:58.336Z,22.47
2018-12-19T04:08:26.851Z,19.77
2018-12-19T04:10:55.265Z,19.57
2018-12-19T04:13:24.476Z,19.27
2018-12-19T04:15:52.880Z,18.80
2018-12-19T04:18:21.253Z,20.20
2018-12-19T04:20:50.280Z,20.17
2018-12-19T04:23:18.656Z,18.60
2018-12-19T04:25:47.117Z,19.30
2018-12-19T04:28:15.510Z,20.70
2018-12-19T04:30:44.088Z,21.23
2018-12-19T04:33:12.514Z,19.70
2018-12-19T04:35:40.932Z,21.60
2018-12-19T04:38:09.455Z,21.30
2018-12-19T04:40:37.872Z,19.40
2018-12-19T04:43:06.995Z,20.97
2018-12-19T04:45:36.369Z,19.52
2018-12-19T04:48:06.339Z,20.20
2018-12-19T04:50:35.851Z,18.90
2018-12-19T04:53:04.443Z,18.80
2018-12-19T04:55:32.869Z,21.30
2018-12-19T04:58:01.290Z,20.93
2018-12-19T05:00:29.889Z,21.25
2018-12-19T05:02:58.366Z,20.32
2018-12-19T05:05:26.803Z,19.70
2018-12-19T05:07:55.314Z,18.95
2018-12-19T05:10:23.747Z,19.92
2018-12-19T05:12:53.256Z,18.50
2018-12-19T05:15:21.690Z,17.55
2018-12-19T05:17:50.746Z,19.02
2018-12-19T05:20:19.194Z,18.25
2018-12-19T05:22:47.578Z,19.52
2018-12-19T05:25:15.939Z,19.37
2018-12-19T05:27:44.370Z,19.98
2018-12-19T05:30:12.867Z,20.35
2018-12-19T05:32:41.270Z,19.70
2018-12-19T05:35:09.699Z,20.70
2018-12-19T05:37:38.079Z,18.57
2018-12-19T05:40:08.078Z,19.85
2018-12-19T05:42:36.501Z,18.15
2018-12-19T05:45:07.034Z,20.35
2018-12-19T05:47:35.780Z,19.55
2018-12-19T05:50:05.324Z,18.75
2018-12-19T05:52:33.990Z,18.90
2018-12-19T05:55:02.485Z,18.52
2018-12-19T05:57:31.163Z,19.90
2018-12-19T05:59:59.555Z,19.67
2018-12-19T06:02:28.061Z,20.63
2018-12-19T06:04:56.503Z,20.08
2018-12-19T06:07:25.162Z,20.30
2018-12-19T06:09:53.575Z,20.88
2018-12-19T06:12:21.976Z,19.73
2018-12-19T06:14:50.404Z,20.97
2018-12-19T06:17:19.078Z,21.20
2018-12-19T06:19:47.519Z,21.62
2018-12-19T06:22:15.923Z,21.82
2018-12-19T06:24:44.603Z,20.73
2018-12-19T06:27:13.441Z,20.60
2018-12-19T06:29:41.896Z,22.27
2018-12-19T06:32:10.278Z,20.50
2018-12-19T06:34:40.087Z,22.42
2018-12-19T06:37:08.510Z,20.37
2018-12-19T06:39:36.953Z,21.70
2018-12-19T06:42:06.230Z,21.23
2018-12-19T06:44:34.609Z,19.87
2018-12-19T06:47:05.961Z,19.42
2018-12-19T06:49:34.288Z,20.20
2018-12-19T06:52:02.644Z,20.45
2018-12-19T06:54:31.055Z,19.43
2018-12-19T06:56:59.454Z,19.48
2018-12-19T06:59:27.847Z,21.77
2018-12-19T07:01:56.156Z,20.93
2018-12-19T07:04:24.565Z,20.75
2018-12-19T07:06:53.318Z,21.68
2018-12-19T07:09:21.961Z,20.45
2018-12-19T07:11:50.328Z,19.50
2018-12-19T07:14:18.721Z,20.55
2018-12-19T07:16:47.043Z,18.45
2018-12-19T07:19:15.454Z,19.92
2018-12-19T07:21:43.816Z,20.00
2018-12-19T07:24:12.354Z,18.30
2018-12-19T07:26:40.818Z,20.43
2018-12-19T07:29:09.191Z,22.07
2018-12-19T07:31:37.592Z,20.37
2018-12-19T07:34:06.064Z,21.57
2018-12-19T07:36:34.779Z,22.17
2018-12-19T07:39:05.252Z,21.43
2018-12-19T07:41:33.786Z,18.67
2018-12-19T07:44:02.162Z,20.60
2018-12-19T07:46:30.732Z,21.02
2018-12-19T07:48:59.219Z,22.15
2018-12-19T07:51:27.718Z,20.13
2018-12-19T07:53:56.393Z,23.97
2018-12-19T07:56:25.294Z,22.50
2018-12-19T07:58:54.009Z,21.67
2018-12-19T08:01:22.641Z,20.82
2018-12-19T08:03:51.318Z,21.30
2018-12-19T08:06:20.360Z,22.67
2018-12-19T08:08:48.944Z,21.63
2018-12-19T08:11:17.295Z,20.37
2018-12-19T08:13:45.751Z,20.67
2018-12-19T08:16:14.091Z,22.03
2018-12-19T08:18:42.476Z,19.55
2018-12-19T08:21:10.943Z,19.40
2018-12-19T08:23:39.617Z,20.63
2018-12-19T08:26:08.255Z,20.68
2018-12-19T08:28:37.084Z,21.13
2018-12-19T08:31:05.778Z,19.87
2018-12-19T08:33:34.392Z,20.30
2018-12-19T08:36:02.958Z,20.68
2018-12-19T08:38:31.340Z,21.13
2018-12-19T08:40:59.756Z,19.60
2018-12-19T08:43:28.245Z,17.57
2018-12-19T08:45:57.074Z,19.67
2018-12-19T08:48:25.619Z,20.10
2018-12-19T08:50:54.070Z,21.43
2018-12-19T08:53:22.842Z,20.88
2018-12-19T08:55:51.601Z,19.37
2018-12-19T08:58:19.968Z,22.57
2018-12-19T09:03:36.434Z,21.27
2018-12-19T09:06:05.120Z,21.63
2018-12-19T09:08:33.500Z,21.60
2018-12-19T09:11:05.649Z,22.43
2018-12-19T09:13:32.312Z,21.43
2018-12-19T09:16:00.899Z,21.90
2018-12-19T09:18:29.469Z,22.37
2018-12-19T09:20:57.835Z,21.40
2018-12-19T09:23:26.439Z,21.50
2018-12-19T09:25:54.906Z,21.17
2018-12-19T09:28:23.358Z,20.43
2018-12-19T09:30:51.949Z,20.57
2018-12-19T09:33:27.384Z,20.80
2018-12-19T09:35:52.416Z,18.98
2018-12-19T09:38:20.864Z,19.93
2018-12-19T09:40:49.274Z,21.57
2018-12-19T09:43:17.634Z,19.83
2018-12-19T09:45:46.078Z,22.63
2018-12-19T09:48:14.629Z,19.50
2018-12-19T09:50:43.053Z,19.67
2018-12-19T09:53:11.876Z,19.87
2018-12-19T09:55:40.281Z,19.50
2018-12-19T09:58:08.647Z,18.73
2018-12-19T10:00:37.059Z,19.20
2018-12-19T10:03:05.473Z,19.90
2018-12-19T10:05:34.026Z,20.70
2018-12-19T10:08:02.410Z,20.00
2018-12-19T10:10:30.902Z,20.20
2018-12-19T10:12:59.342Z,21.40
2018-12-19T10:15:27.753Z,20.10
2018-12-19T10:17:56.237Z,20.00
2018-12-19T10:20:24.618Z,17.90
2018-12-19T10:22:55.285Z,18.70
2018-12-19T10:25:24.654Z,19.40
2018-12-19T10:27:53.112Z,20.23
2018-12-19T10:30:21.562Z,19.70
2018-12-19T10:32:56.500Z,20.97
2018-12-19T11:08:55.967Z,17.87
2018-12-19T11:11:24.560Z,18.48
2018-12-19T11:13:53.036Z,18.63
2018-12-19T11:16:21.542Z,19.37
2018-12-19T11:18:50.014Z,17.37
2018-12-19T11:21:18.462Z,17.50
2018-12-19T11:23:46.897Z,17.30
2018-12-19T11:28:32.173Z,16.60
2018-12-19T11:31:01.717Z,15.98
2018-12-19T11:33:30.258Z,16.70
2018-12-19T11:35:58.703Z,17.15
2018-12-19T11:38:27.112Z,17.57
2018-12-19T11:40:55.582Z,16.90
2018-12-19T11:43:24.105Z,17.40
2018-12-19T11:45:52.736Z,18.40
2018-12-19T11:48:21.351Z,17.40
2018-12-19T11:50:49.840Z,16.40
2018-12-19T11:53:18.319Z,17.80
2018-12-19T11:55:46.783Z,17.37
2018-12-19T11:58:15.255Z,15.87
2018-12-19T12:00:43.676Z,14.73
2018-12-19T12:03:12.219Z,15.63
2018-12-19T12:05:41.809Z,17.10
2018-12-19T12:08:10.294Z,16.60
2018-12-19T12:10:38.750Z,17.60
2018-12-19T12:13:07.241Z,16.83
2018-12-19T12:15:37.386Z,15.30
2018-12-19T12:18:05.954Z,16.73
2018-12-19T12:20:34.340Z,15.40
2018-12-19T12:23:02.944Z,15.50
2018-12-19T12:25:31.417Z,15.25
2018-12-19T12:27:59.799Z,15.37
2018-12-19T12:30:28.253Z,18.73
2018-12-19T12:32:56.832Z,15.60
2018-12-19T12:35:25.351Z,16.77
2018-12-19T12:37:53.786Z,17.40
2018-12-19T12:40:22.266Z,17.90
2018-12-19T12:42:50.738Z,17.10
2018-12-19T12:45:19.193Z,17.10
2018-12-19T12:47:47.602Z,16.73
2018-12-19T12:50:16.068Z,15.85
2018-12-19T12:52:44.510Z,15.48
2018-12-19T12:55:13.033Z,16.23
2018-12-19T12:57:41.511Z,15.98
2018-12-19T13:00:10.843Z,16.60
2018-12-19T13:02:39.210Z,16.53
2018-12-19T13:05:07.753Z,17.37
2018-12-19T13:07:36.246Z,16.80
2018-12-19T13:10:05.895Z,16.43
2018-12-19T13:12:45.022Z,15.43
2018-12-19T13:15:15.586Z,15.90
2018-12-19T13:17:44.217Z,15.57
2018-12-19T13:20:13.628Z,17.87
2018-12-19T13:22:42.184Z,16.67
2018-12-19T13:25:10.797Z,17.20
2018-12-19T13:27:41.057Z,16.20
2018-12-19T13:30:12.505Z,16.83
2018-12-19T13:32:41.997Z,15.80
2018-12-19T13:35:10.538Z,16.05
2018-12-19T13:37:40.122Z,14.95
2018-12-19T13:40:09.242Z,16.50
2018-12-19T13:42:38.459Z,16.87
2018-12-19T13:45:07.851Z,15.73
2018-12-19T13:47:37.170Z,16.65
2018-12-19T13:50:06.702Z,15.72
2018-12-19T13:52:35.719Z,15.90
2018-12-19T13:55:06.802Z,15.67
2018-12-19T13:57:36.142Z,17.43
2018-12-19T14:00:07.072Z,14.57
2018-12-19T14:02:35.514Z,17.30
2018-12-19T14:05:04.254Z,16.17
2018-12-19T14:07:32.999Z,15.73
2018-12-19T14:10:01.731Z,17.10
2018-12-19T14:12:30.156Z,15.93
2018-12-19T14:14:58.611Z,16.67
2018-12-19T14:17:26.987Z,18.37
2018-12-19T14:19:55.407Z,17.63
2018-12-19T14:22:23.999Z,17.50
2018-12-19T14:24:52.405Z,18.77
2018-12-19T14:27:21.306Z,19.32
2018-12-19T14:29:50.794Z,18.70
2018-12-19T14:32:19.414Z,16.70
2018-12-19T14:34:47.821Z,17.40
2018-12-19T14:37:16.490Z,16.83
2018-12-19T14:39:45.128Z,16.50
2018-12-19T14:42:19.018Z,17.42
2018-12-19T14:44:43.978Z,16.00
2018-12-19T14:47:12.816Z,17.60
2018-12-19T14:49:41.260Z,18.00
2018-12-19T14:52:09.836Z,15.90
2018-12-19T14:54:38.282Z,16.30
2018-12-19T14:57:06.868Z,17.65
2018-12-19T14:59:35.200Z,17.27
2018-12-19T15:02:03.903Z,15.77
2018-12-19T15:04:32.308Z,16.20
2018-12-19T15:07:29.614Z,15.90
2018-12-19T15:09:58.173Z,16.93
2018-12-19T15:12:26.625Z,17.70
2018-12-19T15:14:59.781Z,19.07
2018-12-19T15:17:32.804Z,17.37
2018-12-19T15:20:01.967Z,18.50
2018-12-19T15:22:30.410Z,18.75
2018-12-19T15:24:58.878Z,19.37
2018-12-19T15:27:30.167Z,18.90
2018-12-19T15:30:05.175Z,20.20
2018-12-19T15:32:36.622Z,21.23
2018-12-19T15:35:10.568Z,19.70
2018-12-19T15:37:39.160Z,20.63
2018-12-19T15:40:07.922Z,21.87
2018-12-19T15:42:38.347Z,20.97
2018-12-19T15:45:07.038Z,21.80
2018-12-19T15:47:35.510Z,22.90
2018-12-19T15:50:05.141Z,21.63
2018-12-19T15:52:33.587Z,22.30
2018-12-19T15:55:02.220Z,21.27
2018-12-19T15:57:30.740Z,20.77
2018-12-19T15:59:59.464Z,21.20
2018-12-19T16:02:28.010Z,21.70
2018-12-19T16:04:56.475Z,21.48
2018-12-19T16:07:24.918Z,20.40
2018-12-19T16:09:53.346Z,20.97
2018-12-19T16:12:21.888Z,22.87
2018-12-19T16:14:50.330Z,19.03
2018-12-19T16:17:18.947Z,20.37
2018-12-19T16:19:47.415Z,21.00
2018-12-19T16:22:15.875Z,20.73
2018-12-19T16:24:45.083Z,23.50
2018-12-19T16:27:13.502Z,21.30
2018-12-19T16:29:42.039Z,22.45
2018-12-19T16:32:11.400Z,21.45
2018-12-19T16:34:42.861Z,21.80
2018-12-19T16:37:11.358Z,22.62
2018-12-19T16:39:39.776Z,22.37
2018-12-19T16:42:08.381Z,24.50
2018-12-19T16:44:36.898Z,24.10
2018-12-19T16:47:05.672Z,22.20
2018-12-19T16:49:34.631Z,21.80
2018-12-19T16:52:03.034Z,21.60
2018-12-19T16:54:31.650Z,19.90
2018-12-19T16:57:00.113Z,20.70
2018-12-19T16:59:28.682Z,20.55
2018-12-19T17:01:57.485Z,19.52
2018-12-19T17:04:26.160Z,22.83
2018-12-19T17:06:54.728Z,23.85
2018-12-19T17:09:23.134Z,24.80
2018-12-19T17:11:52.522Z,21.60
2018-12-19T17:14:21.153Z,22.50
2018-12-19T17:16:49.619Z,24.50
2018-12-19T17:19:18.063Z,29.57
2018-12-19T17:21:46.566Z,23.95
2018-12-19T17:24:17.021Z,22.30
2018-12-19T17:26:45.486Z,21.70
2018-12-19T17:29:13.930Z,21.37
2018-12-19T17:31:42.311Z,22.82
2018-12-19T17:34:19.858Z,21.93
2018-12-19T17:36:48.282Z,22.17
2018-12-19T17:39:16.732Z,21.20
2018-12-19T17:41:45.237Z,22.33
2018-12-19T17:44:13.611Z,21.90
2018-12-19T17:46:43.419Z,21.37
2018-12-19T17:49:11.959Z,24.00
2018-12-19T17:51:44.425Z,23.42
2018-12-19T17:54:13.044Z,22.83
2018-12-19T17:56:42.155Z,23.40
2018-12-19T17:59:10.717Z,23.50
2018-12-19T18:01:40.251Z,21.90
2018-12-19T18:04:08.714Z,21.00
2018-12-19T18:06:37.371Z,20.72
2018-12-19T18:09:07.061Z,20.90
2018-12-19T18:11:35.435Z,21.17
2018-12-19T18:14:04.106Z,20.87
2018-12-19T18:16:33.496Z,20.27
2018-12-19T18:19:02.667Z,20.73
2018-12-19T18:21:31.748Z,22.07
2018-12-19T18:24:01.483Z,19.77
2018-12-19T18:26:29.857Z,20.70
2018-12-19T18:28:58.317Z,20.40
2018-12-19T18:31:26.762Z,20.87
2018-12-19T18:33:55.135Z,18.80
2018-12-19T18:36:24.472Z,19.73
2018-12-19T18:38:52.850Z,18.93
2018-12-19T18:41:21.325Z,19.77
2018-12-19T18:43:49.709Z,20.40
2018-12-19T18:46:18.112Z,20.90
2018-12-19T18:48:46.551Z,19.20
2018-12-19T18:51:14.987Z,21.00
2018-12-19T18:53:43.420Z,19.37
2018-12-19T18:56:12.975Z,20.47
2018-12-19T18:58:41.397Z,22.33
2018-12-19T19:01:09.863Z,20.50
2018-12-19T19:03:38.944Z,20.10
2018-12-19T19:06:07.474Z,21.00
2018-12-19T19:08:35.964Z,19.50
2018-12-19T19:11:04.753Z,19.80
2018-12-19T19:13:33.490Z,21.83
2018-12-19T19:16:01.871Z,26.60
2018-12-19T19:18:31.622Z,21.65
2018-12-19T19:21:00.680Z,20.93
2018-12-19T19:23:29.226Z,20.53
2018-12-19T19:25:58.364Z,19.77
2018-12-19T19:28:27.062Z,19.80
2018-12-19T19:30:55.495Z,23.10
2018-12-19T19:33:23.956Z,20.27
2018-12-19T19:35:54.083Z,20.43
2018-12-19T19:38:23.479Z,21.30
2018-12-19T19:40:52.081Z,20.70
2018-12-19T19:43:26.275Z,22.27
2018-12-19T19:45:51.173Z,19.57
2018-12-19T19:48:19.720Z,20.80
2018-12-19T19:50:48.147Z,21.83
2018-12-19T19:53:16.622Z,20.60
2018-12-19T19:55:47.302Z,19.70
2018-12-19T19:58:15.744Z,19.37
2018-12-19T20:00:44.154Z,19.60
2018-12-19T20:03:12.536Z,44.47
2018-12-19T20:05:41.461Z,33.00
2018-12-19T20:08:09.850Z,24.70
2018-12-19T20:10:38.297Z,22.15
2018-12-19T20:13:06.692Z,21.50
2018-12-19T20:15:35.243Z,20.23
2018-12-19T20:18:04.193Z,20.37
2018-12-19T20:20:33.113Z,20.60
2018-12-19T20:23:01.708Z,19.97
2018-12-19T20:25:30.193Z,21.07
2018-12-19T20:27:58.577Z,21.27
2018-12-19T20:30:26.999Z,21.50
2018-12-19T20:32:55.410Z,21.77
2018-12-19T20:35:23.987Z,21.90
2018-12-19T20:37:52.371Z,19.73
2018-12-19T20:40:20.799Z,21.25
2018-12-19T20:42:49.190Z,22.50
2018-12-19T20:45:17.735Z,21.77
2018-12-19T20:47:46.225Z,22.15
2018-12-19T20:50:14.654Z,20.02
2018-12-19T20:52:44.024Z,23.67
2018-12-19T20:55:12.425Z,23.05
2018-12-19T20:57:40.832Z,22.20
2018-12-19T21:00:10.520Z,22.83
2018-12-19T21:02:39.005Z,23.17
2018-12-19T21:05:07.586Z,21.43
2018-12-19T21:07:38.451Z,22.62
2018-12-19T21:10:13.886Z,21.40
2018-12-19T21:12:42.331Z,22.30
2018-12-19T21:15:11.033Z,22.90
2018-12-19T21:17:44.661Z,22.97
2018-12-19T21:20:13.152Z,21.97
2018-12-19T21:22:41.497Z,21.43
2018-12-19T21:25:11.970Z,24.17
2018-12-19T21:27:40.412Z,22.40
2018-12-19T21:30:10.100Z,21.97
2018-12-19T21:32:38.579Z,25.00
2018-12-19T21:35:06.983Z,22.67
2018-12-19T21:37:35.412Z,23.87
2018-12-19T21:40:05.244Z,23.37
2018-12-19T21:42:33.729Z,22.60
2018-12-19T21:45:02.251Z,24.60
2018-12-19T21:47:30.790Z,23.30
2018-12-19T21:49:59.261Z,22.77
2018-12-19T21:52:27.719Z,24.43
2018-12-19T21:54:57.221Z,22.50
2018-12-19T21:57:25.822Z,30.77
2018-12-19T21:59:54.275Z,66.33
2018-12-19T22:02:22.987Z,56.00
2018-12-19T22:04:52.020Z,46.23
2018-12-19T22:07:20.586Z,39.97
2018-12-19T22:09:49.272Z,70.62
2018-12-19T22:12:17.724Z,58.80
2018-12-19T22:14:46.481Z,38.10
2018-12-19T22:17:20.194Z,30.10
2018-12-19T22:19:48.932Z,25.03
2018-12-19T22:22:17.532Z,25.30
2018-12-19T22:24:46.067Z,22.83
2018-12-19T22:27:14.566Z,23.10
2018-12-19T22:29:43.076Z,22.27
2018-12-19T22:32:11.559Z,21.80
2018-12-19T22:34:40.048Z,22.57
2018-12-19T22:37:08.511Z,21.13
2018-12-19T22:39:36.970Z,21.10
2018-12-19T22:42:06.346Z,22.00
2018-12-19T22:44:34.908Z,22.90
2018-12-19T22:47:03.567Z,22.27
2018-12-19T22:49:32.135Z,20.87
2018-12-19T22:52:00.645Z,22.43
2018-12-19T22:54:29.230Z,21.67
2018-12-19T22:57:05.906Z,24.60
2018-12-19T22:59:39.899Z,22.70
2018-12-19T23:02:14.084Z,23.57
2018-12-19T23:04:42.708Z,24.57
2018-12-19T23:07:11.299Z,23.97
2018-12-19T23:09:39.909Z,21.73
2018-12-19T23:12:08.503Z,22.13
2018-12-19T23:14:37.188Z,24.43
2018-12-19T23:17:10.977Z,23.50
2018-12-19T23:19:39.500Z,22.60
2018-12-19T23:22:07.946Z,21.90
2018-12-19T23:24:36.469Z,23.55
2018-12-19T23:27:04.999Z,23.13
2018-12-19T23:29:33.427Z,25.30
2018-12-19T23:32:01.986Z,22.50
2018-12-19T23:34:30.501Z,23.30
2018-12-19T23:36:59.191Z,22.67
2018-12-19T23:39:27.634Z,20.30
2018-12-19T23:41:56.081Z,22.10
2018-12-19T23:44:29.904Z,20.10
2018-12-19T23:46:58.539Z,21.37
2018-12-19T23:49:26.971Z,20.70
2018-12-19T23:51:55.694Z,21.15
2018-12-19T23:54:29.095Z,22.60
2018-12-19T23:56:54.758Z,22.55
2018-12-19T23:59:23.577Z,20.80
